createdAt,value
2023-03-04T00:02:17.241Z,82.10
2023-03-04T00:04:48.910Z,82.82
2023-03-04T00:07:20.677Z,82.72
2023-03-04T00:09:52.215Z,82.06
2023-03-04T00:12:23.719Z,82.40
2023-03-04T00:14:55.327Z,81.80
2023-03-04T00:17:26.892Z,81.28
2023-03-04T00:19:59.986Z,81.42
2023-03-04T00:22:31.491Z,81.81
2023-03-04T00:25:03.022Z,81.64
2023-03-04T00:27:34.814Z,81.61
2023-03-04T00:30:07.616Z,81.71
2023-03-04T00:32:39.418Z,81.78
2023-03-04T00:35:11.005Z,81.28
2023-03-04T00:37:42.658Z,81.65
2023-03-04T00:40:14.361Z,81.75
2023-03-04T00:42:45.956Z,81.60
2023-03-04T00:45:17.483Z,81.82
2023-03-04T00:47:49.127Z,81.77
2023-03-04T00:50:20.979Z,82.09
2023-03-04T00:52:52.551Z,81.70
2023-03-04T00:55:24.054Z,81.05
2023-03-04T00:57:55.630Z,80.63
2023-03-04T01:00:27.237Z,80.65
2023-03-04T01:02:58.861Z,81.18
2023-03-04T01:05:30.343Z,81.46
2023-03-04T01:08:02.904Z,82.05
2023-03-04T01:10:34.461Z,82.12
2023-03-04T01:13:06.280Z,82.45
2023-03-04T01:15:37.780Z,82.37
2023-03-04T01:18:09.625Z,82.25
2023-03-04T01:20:41.165Z,82.43
2023-03-04T01:23:12.863Z,82.33
2023-03-04T01:25:44.326Z,82.57
2023-03-04T01:28:15.924Z,83.20
2023-03-04T01:30:47.684Z,82.50
2023-03-04T01:33:19.345Z,83.04
2023-03-04T01:35:50.924Z,83.29
2023-03-04T01:38:22.637Z,82.68
2023-03-04T01:40:54.457Z,82.50
2023-03-04T01:43:28.801Z,82.70
2023-03-04T01:46:00.476Z,82.48
2023-03-04T01:48:37.013Z,82.46
2023-03-04T01:51:14.306Z,81.76
2023-03-04T01:53:53.416Z,82.45
2023-03-04T01:56:29.537Z,82.62
2023-03-04T01:59:08.005Z,82.01
2023-03-04T02:01:41.123Z,81.34
2023-03-04T02:04:13.974Z,81.86
2023-03-04T02:06:46.857Z,82.18
2023-03-04T02:09:19.350Z,82.30
2023-03-04T02:11:52.016Z,82.64
2023-03-04T02:14:23.707Z,82.58
2023-03-04T02:16:55.259Z,82.13
2023-03-04T02:19:36.966Z,82.67
2023-03-04T02:22:08.638Z,82.80
2023-03-04T02:24:50.585Z,82.41
2023-03-04T02:27:22.297Z,82.61
2023-03-04T02:29:53.814Z,82.78
2023-03-04T02:32:25.478Z,82.44
2023-03-04T02:34:57.045Z,82.40
2023-03-04T02:37:28.639Z,82.31
2023-03-04T02:40:00.252Z,82.40
2023-03-04T02:42:31.805Z,82.20
2023-03-04T02:45:05.811Z,82.38
2023-03-04T02:47:37.735Z,82.89
2023-03-04T02:50:10.091Z,83.10
2023-03-04T02:52:41.442Z,83.56
2023-03-04T02:55:12.953Z,83.67
2023-03-04T02:57:46.582Z,83.75
2023-03-04T03:00:18.149Z,83.61
2023-03-04T03:02:49.705Z,83.36
2023-03-04T03:05:21.222Z,83.85
2023-03-04T03:07:52.837Z,84.16
2023-03-04T03:10:25.123Z,84.13
2023-03-04T03:12:56.688Z,83.53
2023-03-04T03:15:28.361Z,84.06
2023-03-04T03:17:59.916Z,83.94
2023-03-04T03:20:31.693Z,83.83
2023-03-04T03:23:04.396Z,84.03
2023-03-04T03:25:35.990Z,83.78
2023-03-04T03:28:07.573Z,84.35
2023-03-04T03:30:39.215Z,84.38
2023-03-04T03:33:10.737Z,84.22
2023-03-04T03:35:42.245Z,84.09
2023-03-04T03:38:14.811Z,83.84
2023-03-04T03:40:46.847Z,83.65
2023-03-04T03:43:18.415Z,83.22
2023-03-04T03:45:51.873Z,82.89
2023-03-04T03:48:23.724Z,82.92
2023-03-04T03:50:55.246Z,83.14
2023-03-04T03:53:26.723Z,83.39
2023-03-04T03:55:59.057Z,83.65
2023-03-04T03:58:30.531Z,83.80
2023-03-04T04:01:02.067Z,84.04
2023-03-04T04:03:33.615Z,83.95
2023-03-04T04:06:05.516Z,83.91
2023-03-04T04:08:37.062Z,83.72
2023-03-04T04:11:10.585Z,83.18
2023-03-04T04:13:42.148Z,83.78
2023-03-04T04:16:13.877Z,84.10
2023-03-04T04:18:45.506Z,84.59
2023-03-04T04:21:17.298Z,84.56
2023-03-04T04:23:48.912Z,85.29
2023-03-04T04:26:20.483Z,84.79
2023-03-04T04:28:52.063Z,85.04
2023-03-04T04:31:23.729Z,85.09
2023-03-04T04:33:55.230Z,85.54
2023-03-04T04:36:27.334Z,85.35
2023-03-04T04:38:58.998Z,85.38
2023-03-04T04:41:36.677Z,85.60
2023-03-04T04:44:10.179Z,85.20
2023-03-04T04:46:42.637Z,84.76
2023-03-04T04:49:14.508Z,85.34
2023-03-04T04:51:46.404Z,85.10
2023-03-04T04:54:17.904Z,85.29
2023-03-04T04:56:49.438Z,85.90
2023-03-04T04:59:21.365Z,86.10
2023-03-04T05:01:52.857Z,86.06
2023-03-04T05:04:24.419Z,86.03
2023-03-04T05:06:55.901Z,85.94
2023-03-04T05:09:27.367Z,85.55
2023-03-04T05:11:59.094Z,85.67
2023-03-04T05:14:30.626Z,86.39
2023-03-04T05:17:02.128Z,86.51
2023-03-04T05:19:34.592Z,86.72
2023-03-04T05:22:06.123Z,86.57
2023-03-04T05:24:37.635Z,86.99
2023-03-04T05:27:09.149Z,87.78
2023-03-04T05:29:40.618Z,87.87
2023-03-04T05:32:12.487Z,88.33
2023-03-04T05:34:44.064Z,88.26
2023-03-04T05:37:15.576Z,88.18
2023-03-04T05:39:47.004Z,87.59
2023-03-04T05:42:18.552Z,87.70
2023-03-04T05:44:50.042Z,87.78
2023-03-04T05:47:21.505Z,87.18
2023-03-04T05:49:53.047Z,87.24
2023-03-04T05:52:24.635Z,87.90
2023-03-04T05:54:56.174Z,88.38
2023-03-04T05:57:27.688Z,88.34
2023-03-04T05:59:59.166Z,88.50
2023-03-04T06:02:30.744Z,88.62
2023-03-04T06:05:03.113Z,88.61
2023-03-04T06:07:35.122Z,87.90
2023-03-04T06:10:07.748Z,88.17
2023-03-04T06:12:40.717Z,87.32
2023-03-04T06:15:14.102Z,86.84
2023-03-04T06:17:46.713Z,86.91
2023-03-04T06:20:18.490Z,86.73
2023-03-04T06:22:50.409Z,86.85
2023-03-04T06:25:22.169Z,86.60
2023-03-04T06:27:55.325Z,86.57
2023-03-04T06:30:27.363Z,87.19
2023-03-04T06:32:59.281Z,87.17
2023-03-04T06:35:32.215Z,87.11
2023-03-04T06:38:03.861Z,87.28
2023-03-04T06:40:35.730Z,87.19
2023-03-04T06:43:07.593Z,87.30
2023-03-04T06:45:39.422Z,87.72
2023-03-04T06:48:12.009Z,87.62
2023-03-04T06:50:43.649Z,87.60
2023-03-04T06:53:15.421Z,87.25
2023-03-04T06:55:48.043Z,86.80
2023-03-04T06:58:19.605Z,87.03
2023-03-04T07:00:51.460Z,86.59
2023-03-04T07:03:23.606Z,86.48
2023-03-04T07:05:55.198Z,86.24
2023-03-04T07:08:27.097Z,86.02
2023-03-04T07:10:58.612Z,85.37
2023-03-04T07:13:30.183Z,85.30
2023-03-04T07:16:01.943Z,84.79
2023-03-04T07:18:34.458Z,85.00
2023-03-04T07:21:07.297Z,85.45
2023-03-04T07:23:39.352Z,84.71
2023-03-04T07:26:11.177Z,85.38
2023-03-04T07:28:43.533Z,85.92
2023-03-04T07:31:23.030Z,86.09
2023-03-04T07:34:00.281Z,85.81
2023-03-04T07:36:39.099Z,85.75
2023-03-04T07:39:13.405Z,85.46
2023-03-04T07:41:44.912Z,85.55
2023-03-04T07:44:16.458Z,86.09
2023-03-04T07:46:47.950Z,86.18
2023-03-04T07:49:19.497Z,86.30
2023-03-04T07:51:51.019Z,86.17
2023-03-04T07:54:22.709Z,85.84
2023-03-04T07:56:54.417Z,86.28
2023-03-04T07:59:25.949Z,86.70
2023-03-04T08:01:57.453Z,86.32
2023-03-04T08:04:29.004Z,85.91
2023-03-04T08:07:00.545Z,85.58
2023-03-04T08:09:32.091Z,85.67
2023-03-04T08:12:03.826Z,85.55
2023-03-04T08:14:35.652Z,86.34
2023-03-04T08:17:07.370Z,85.42
2023-03-04T08:19:38.932Z,85.19
2023-03-04T08:22:10.569Z,85.08
2023-03-04T08:24:42.079Z,85.03
2023-03-04T08:27:13.639Z,82.86
2023-03-04T08:29:45.103Z,83.67
2023-03-04T08:32:16.811Z,82.95
2023-03-04T08:34:48.417Z,81.90
2023-03-04T08:37:19.884Z,81.97
2023-03-04T08:39:51.497Z,81.69
2023-03-04T08:42:24.138Z,81.86
2023-03-04T08:44:55.667Z,81.47
2023-03-04T08:47:27.100Z,82.30
2023-03-04T08:49:58.651Z,80.85
2023-03-04T08:52:30.786Z,80.91
2023-03-04T08:55:02.706Z,81.15
2023-03-04T08:57:34.184Z,80.70
2023-03-04T09:00:06.403Z,80.56
2023-03-04T09:02:37.931Z,80.51
2023-03-04T09:05:09.772Z,80.74
2023-03-04T09:07:41.284Z,79.64
2023-03-04T09:10:13.268Z,80.00
2023-03-04T09:12:44.886Z,79.39
2023-03-04T09:15:16.554Z,78.88
2023-03-04T09:17:48.089Z,79.10
2023-03-04T09:20:23.277Z,77.79
2023-03-04T09:22:54.910Z,77.04
2023-03-04T09:25:26.427Z,76.12
2023-03-04T09:27:58.142Z,75.40
2023-03-04T09:30:30.400Z,74.98
2023-03-04T09:33:02.062Z,74.17
2023-03-04T09:35:33.761Z,73.36
2023-03-04T09:38:06.117Z,74.25
2023-03-04T09:40:43.238Z,72.76
2023-03-04T09:43:33.739Z,72.29
2023-03-04T09:46:11.512Z,72.09
2023-03-04T09:48:50.801Z,71.50
2023-03-04T09:51:25.506Z,71.77
2023-03-04T09:54:27.258Z,71.25
2023-03-04T09:57:17.244Z,71.53
2023-03-04T10:00:00.903Z,71.19
2023-03-04T10:02:41.063Z,70.11
2023-03-04T10:05:20.774Z,69.98
2023-03-04T10:08:05.451Z,70.75
2023-03-04T10:10:44.163Z,69.65
2023-03-04T10:13:23.366Z,68.65
2023-03-04T10:15:57.032Z,69.51
2023-03-04T10:18:43.850Z,69.52
2023-03-04T10:21:32.360Z,68.86
2023-03-04T10:24:13.567Z,67.45
2023-03-04T10:26:49.422Z,66.38
2023-03-04T10:29:24.353Z,65.69
2023-03-04T10:31:56.523Z,64.55
2023-03-04T10:34:28.217Z,64.15
2023-03-04T10:37:05.619Z,62.83
2023-03-04T10:39:55.202Z,62.71
2023-03-04T10:42:30.266Z,62.30
2023-03-04T10:45:01.820Z,61.80
2023-03-04T10:47:34.613Z,61.64
2023-03-04T10:50:06.762Z,60.91
2023-03-04T10:52:38.217Z,61.29
2023-03-04T10:55:41.868Z,60.44
2023-03-04T10:58:18.799Z,60.81
2023-03-04T11:01:03.767Z,60.62
2023-03-04T11:03:37.270Z,60.36
2023-03-04T11:06:21.100Z,60.73
2023-03-04T11:09:01.079Z,60.67
2023-03-04T11:11:44.767Z,60.98
2023-03-04T11:14:30.394Z,60.77
2023-03-04T11:17:45.606Z,60.64
2023-03-04T11:20:33.900Z,60.77
2023-03-04T11:23:20.016Z,61.05
2023-03-04T11:26:13.539Z,60.08
2023-03-04T11:28:58.319Z,59.32
2023-03-04T11:31:48.946Z,59.19
2023-03-04T11:34:26.755Z,59.14
2023-03-04T11:37:08.282Z,58.95
2023-03-04T11:39:46.305Z,58.22
2023-03-04T11:42:25.076Z,58.22
2023-03-04T11:44:56.991Z,59.10
2023-03-04T11:47:56.836Z,58.67
2023-03-04T11:50:57.100Z,57.15
2023-03-04T11:54:11.580Z,56.81
2023-03-04T11:56:52.201Z,57.71
2023-03-04T12:00:00.865Z,55.57
2023-03-04T12:02:41.377Z,57.46
2023-03-04T12:05:38.723Z,56.37
2023-03-04T12:08:26.535Z,55.70
2023-03-04T12:11:08.129Z,55.13
2023-03-04T12:14:21.544Z,54.71
2023-03-04T12:17:14.831Z,53.47
2023-03-04T12:20:01.892Z,53.43
2023-03-04T12:22:48.455Z,53.32
2023-03-04T12:25:44.406Z,54.19
2023-03-04T12:28:52.192Z,54.29
2023-03-04T12:31:34.930Z,53.59
2023-03-04T12:34:43.554Z,53.03
2023-03-04T12:37:30.340Z,51.49
2023-03-04T12:40:23.328Z,50.84
2023-03-04T12:43:22.090Z,51.16
2023-03-04T12:46:11.742Z,52.06
2023-03-04T12:48:56.839Z,52.18
2023-03-04T12:51:40.863Z,52.54
2023-03-04T12:54:26.000Z,51.79
2023-03-04T12:57:03.479Z,51.98
2023-03-04T12:59:59.254Z,52.58
2023-03-04T13:02:42.731Z,49.68
2023-03-04T13:05:24.475Z,47.22
2023-03-04T13:07:59.686Z,46.19
2023-03-04T13:10:31.613Z,47.55
2023-03-04T13:13:04.211Z,48.66
2023-03-04T13:15:38.276Z,49.17
2023-03-04T13:18:31.375Z,45.53
2023-03-04T13:21:07.793Z,45.63
2023-03-04T13:23:39.886Z,42.79
2023-03-04T13:26:18.277Z,39.68
2023-03-04T13:28:55.281Z,38.58
2023-03-04T13:31:27.091Z,38.76
2023-03-04T13:34:00.290Z,38.79
2023-03-04T13:36:54.895Z,36.56
2023-03-04T13:39:28.561Z,34.83
2023-03-04T13:42:00.972Z,34.39
2023-03-04T13:44:56.875Z,34.34
2023-03-04T13:47:48.893Z,34.21
2023-03-04T13:50:34.069Z,35.76
2023-03-04T13:53:30.613Z,34.96
2023-03-04T13:56:07.061Z,34.16
2023-03-04T13:58:39.635Z,35.47
2023-03-04T14:01:25.444Z,34.71
2023-03-04T14:03:57.446Z,34.64
2023-03-04T14:06:31.300Z,34.75
2023-03-04T14:09:16.552Z,34.48
2023-03-04T14:11:49.847Z,34.91
2023-03-04T14:14:24.550Z,36.70
2023-03-04T14:17:02.777Z,40.12
2023-03-04T14:19:43.060Z,42.45
2023-03-04T14:22:20.464Z,43.69
2023-03-04T14:25:19.955Z,44.38
2023-03-04T14:28:05.599Z,46.00
2023-03-04T14:30:43.601Z,46.57
2023-03-04T14:33:19.568Z,47.64
2023-03-04T14:35:53.577Z,47.68
2023-03-04T14:38:31.198Z,47.79
2023-03-04T14:41:10.728Z,48.61
2023-03-04T14:44:04.075Z,49.55
2023-03-04T14:47:00.553Z,49.88
2023-03-04T14:49:39.475Z,48.40
2023-03-04T14:52:40.107Z,46.49
2023-03-04T14:55:14.860Z,43.93
2023-03-04T14:58:08.194Z,42.06
2023-03-04T15:00:43.190Z,40.21
2023-03-04T15:03:19.319Z,40.13
2023-03-04T15:05:55.074Z,41.19
2023-03-04T15:08:35.664Z,42.18
2023-03-04T15:11:08.417Z,43.08
2023-03-04T15:13:41.562Z,45.18
2023-03-04T15:16:14.892Z,45.75
2023-03-04T15:18:55.314Z,46.22
2023-03-04T15:21:31.722Z,46.97
2023-03-04T15:24:04.741Z,45.73
2023-03-04T15:26:41.013Z,45.77
2023-03-04T15:29:18.064Z,44.23
2023-03-04T15:31:49.635Z,43.64
2023-03-04T15:34:21.316Z,44.18
2023-03-04T15:36:53.857Z,45.81
2023-03-04T15:39:27.567Z,44.72
2023-03-04T15:42:03.532Z,45.07
2023-03-04T15:44:35.078Z,44.54
2023-03-04T15:47:08.811Z,44.67
2023-03-04T15:49:42.496Z,46.91
2023-03-04T15:52:17.892Z,49.53
2023-03-04T15:54:49.671Z,52.16
2023-03-04T15:57:24.583Z,54.18
2023-03-04T15:59:56.118Z,54.75
2023-03-04T16:02:27.721Z,55.35
2023-03-04T16:04:59.565Z,56.73
2023-03-04T16:07:31.253Z,56.36
2023-03-04T16:10:08.898Z,57.14
2023-03-04T16:12:40.494Z,57.41
2023-03-04T16:15:18.761Z,58.15
2023-03-04T16:17:50.892Z,59.13
2023-03-04T16:20:27.464Z,59.59
2023-03-04T16:23:00.857Z,59.46
2023-03-04T16:25:32.449Z,60.17
2023-03-04T16:28:04.186Z,59.49
2023-03-04T16:30:35.759Z,60.33
2023-03-04T16:33:07.320Z,60.42
2023-03-04T16:35:39.523Z,60.62
2023-03-04T16:38:21.152Z,61.96
2023-03-04T16:40:53.027Z,61.55
2023-03-04T16:43:24.916Z,62.22
2023-03-04T16:45:56.459Z,63.50
2023-03-04T16:48:27.971Z,63.87
2023-03-04T16:50:59.553Z,63.31
2023-03-04T16:53:37.139Z,63.35
2023-03-04T16:56:17.046Z,62.84
2023-03-04T16:58:49.234Z,63.72
2023-03-04T17:01:23.088Z,63.76
2023-03-04T17:03:55.643Z,62.70
2023-03-04T17:06:28.154Z,62.67
2023-03-04T17:09:02.213Z,63.11
2023-03-04T17:11:34.125Z,63.14
2023-03-04T17:14:05.627Z,62.83
2023-03-04T17:16:37.266Z,63.06
2023-03-04T17:19:08.824Z,62.61
2023-03-04T17:21:40.656Z,63.17
2023-03-04T17:24:12.232Z,62.80
2023-03-04T17:26:43.798Z,62.51
2023-03-04T17:29:15.618Z,61.99
2023-03-04T17:31:47.197Z,61.73
2023-03-04T17:34:19.047Z,62.30
2023-03-04T17:36:50.657Z,63.22
2023-03-04T17:39:22.165Z,62.46
2023-03-04T17:41:53.683Z,62.54
2023-03-04T17:44:25.242Z,63.70
2023-03-04T17:46:57.614Z,63.68
2023-03-04T17:49:28.988Z,63.82
2023-03-04T17:52:02.901Z,64.84
2023-03-04T17:54:36.058Z,64.95
2023-03-04T17:57:10.047Z,66.15
2023-03-04T17:59:41.648Z,65.92
2023-03-04T18:02:16.440Z,67.00
2023-03-04T18:04:50.109Z,66.97
2023-03-04T18:07:21.693Z,67.32
2023-03-04T18:09:53.187Z,67.85
2023-03-04T18:12:24.793Z,67.26
2023-03-04T18:14:56.368Z,68.15
2023-03-04T18:17:27.940Z,68.47
2023-03-04T18:19:59.462Z,68.54
2023-03-04T18:22:31.343Z,69.04
2023-03-04T18:25:03.030Z,68.80
2023-03-04T18:27:34.563Z,68.28
2023-03-04T18:30:10.809Z,68.49
2023-03-04T18:32:51.895Z,68.40
2023-03-04T18:35:24.034Z,68.24
2023-03-04T18:37:55.550Z,68.67
2023-03-04T18:40:30.919Z,68.73
2023-03-04T18:43:04.827Z,68.79
2023-03-04T18:45:36.384Z,68.57
2023-03-04T18:48:08.379Z,68.22
2023-03-04T18:50:39.905Z,68.68
2023-03-04T18:53:11.636Z,68.75
2023-03-04T18:55:43.216Z,69.02
2023-03-04T18:58:14.723Z,68.65
2023-03-04T19:00:46.567Z,68.70
2023-03-04T19:03:18.134Z,68.64
2023-03-04T19:05:49.680Z,68.31
2023-03-04T19:08:21.218Z,67.84
2023-03-04T19:10:52.845Z,67.83
2023-03-04T19:13:24.852Z,67.77
2023-03-04T19:15:56.357Z,67.98
2023-03-04T19:18:29.125Z,67.69
2023-03-04T19:21:00.793Z,67.56
2023-03-04T19:23:32.398Z,67.24
2023-03-04T19:26:06.897Z,67.09
2023-03-04T19:28:38.407Z,66.88
2023-03-04T19:31:11.119Z,66.84
2023-03-04T19:33:43.022Z,66.59
2023-03-04T19:36:14.562Z,66.56
2023-03-04T19:38:46.936Z,67.38
2023-03-04T19:41:18.663Z,67.32
2023-03-04T19:43:50.691Z,66.74
2023-03-04T19:46:22.308Z,67.22
2023-03-04T19:48:53.961Z,67.27
2023-03-04T19:51:28.028Z,67.37
2023-03-04T19:54:00.772Z,67.68
2023-03-04T19:56:32.240Z,67.40
2023-03-04T19:59:04.882Z,66.82
2023-03-04T20:01:37.603Z,67.45
2023-03-04T20:04:15.433Z,66.95
2023-03-04T20:06:49.202Z,66.34
2023-03-04T20:09:20.814Z,66.57
2023-03-04T20:11:58.774Z,66.57
2023-03-04T20:14:32.717Z,66.83
2023-03-04T20:17:07.035Z,67.08
2023-03-04T20:19:38.813Z,67.08
2023-03-04T20:22:11.113Z,67.15
2023-03-04T20:24:42.971Z,66.87
2023-03-04T20:27:15.512Z,67.11
2023-03-04T20:29:49.210Z,66.90
2023-03-04T20:32:21.377Z,67.11
2023-03-04T20:34:57.001Z,67.07
2023-03-04T20:37:28.722Z,66.86
2023-03-04T20:40:00.314Z,66.77
2023-03-04T20:42:32.249Z,66.50
2023-03-04T20:45:04.926Z,66.90
2023-03-04T20:47:39.631Z,66.67
2023-03-04T20:50:12.792Z,66.87
2023-03-04T20:52:46.003Z,66.70
2023-03-04T20:55:17.963Z,66.69
2023-03-04T20:57:49.507Z,66.87
2023-03-04T21:00:21.391Z,66.82
2023-03-04T21:02:52.885Z,67.08
2023-03-04T21:05:24.346Z,67.30
2023-03-04T21:07:55.993Z,67.03
2023-03-04T21:10:28.015Z,66.62
2023-03-04T21:12:59.582Z,66.77
2023-03-04T21:15:31.542Z,66.25
2023-03-04T21:18:03.304Z,66.14
2023-03-04T21:20:34.860Z,66.13
2023-03-04T21:23:06.591Z,65.71
2023-03-04T21:25:38.083Z,65.35
2023-03-04T21:28:09.503Z,65.35
2023-03-04T21:30:41.606Z,65.59
2023-03-04T21:33:18.745Z,66.05
2023-03-04T21:35:50.455Z,66.31
2023-03-04T21:38:21.968Z,66.43
2023-03-04T21:40:53.531Z,65.91
2023-03-04T21:43:25.023Z,66.19
2023-03-04T21:45:58.563Z,66.22
2023-03-04T21:48:30.071Z,66.56
2023-03-04T21:51:07.162Z,66.66
2023-03-04T21:53:39.543Z,66.94
2023-03-04T21:56:11.704Z,67.12
2023-03-04T21:58:43.231Z,67.09
2023-03-04T22:01:21.367Z,67.15
2023-03-04T22:03:53.606Z,67.08
2023-03-04T22:06:26.656Z,67.07
2023-03-04T22:08:58.517Z,67.13
2023-03-04T22:11:30.724Z,68.03
2023-03-04T22:14:03.188Z,68.21
2023-03-04T22:16:39.841Z,68.32
2023-03-04T22:19:17.090Z,68.50
2023-03-04T22:21:48.652Z,67.80
2023-03-04T22:24:20.918Z,67.73
2023-03-04T22:26:52.452Z,67.71
2023-03-04T22:29:24.146Z,67.67
2023-03-04T22:31:55.803Z,68.28
2023-03-04T22:34:27.438Z,68.90
2023-03-04T22:36:59.071Z,68.88
2023-03-04T22:39:30.637Z,68.92
2023-03-04T22:42:02.225Z,68.66
2023-03-04T22:44:34.579Z,68.44
2023-03-04T22:47:06.048Z,68.22
2023-03-04T22:49:39.646Z,68.59
2023-03-04T22:52:11.143Z,68.96
2023-03-04T22:54:42.673Z,68.95
2023-03-04T22:57:14.176Z,69.38
2023-03-04T22:59:45.652Z,68.79
2023-03-04T23:02:17.481Z,69.34
2023-03-04T23:04:49.003Z,69.07
2023-03-04T23:07:20.516Z,68.97
2023-03-04T23:09:51.967Z,69.10
2023-03-04T23:12:23.620Z,68.87
2023-03-04T23:14:55.183Z,68.70
2023-03-04T23:17:26.882Z,68.62
2023-03-04T23:19:58.371Z,68.09
2023-03-04T23:22:30.412Z,68.30
2023-03-04T23:25:01.860Z,68.43
2023-03-04T23:27:33.406Z,68.70
2023-03-04T23:30:07.512Z,68.83
2023-03-04T23:32:39.051Z,68.44
2023-03-04T23:35:11.037Z,68.71
2023-03-04T23:37:42.617Z,68.80
2023-03-04T23:40:14.144Z,68.60
2023-03-04T23:42:45.841Z,68.53
2023-03-04T23:45:17.497Z,69.29
2023-03-04T23:47:49.075Z,69.35
2023-03-04T23:50:20.654Z,69.52
2023-03-04T23:52:52.285Z,69.48
2023-03-04T23:55:23.833Z,69.79
2023-03-04T23:57:55.358Z,69.14
